sensor_id;sensor_type;location;lat;lon;timestamp;pressure;altitude;pressure_sealevel;temperature;humidity
69772;BME280;57046;45.988;18.664;2022-10-30T00:01:22;101556.41;;;11.61;100.00
69772;BME280;57046;45.988;18.664;2022-10-30T00:03:47;101564.25;;;11.63;100.00
69772;BME280;57046;45.988;18.664;2022-10-30T00:06:13;101532.34;;;11.46;100.00
69772;BME280;57046;45.988;18.664;2022-10-30T00:08:38;101558.22;;;11.66;100.00
69772;BME280;57046;45.988;18.664;2022-10-30T00:11:08;101544.78;;;11.61;100.00
69772;BME280;57046;45.988;18.664;2022-10-30T00:13:34;101570.47;;;11.77;100.00
69772;BME280;57046;45.988;18.664;2022-10-30T00:16:03;101583.44;;;11.80;100.00
69772;BME280;57046;45.988;18.664;2022-10-30T00:18:28;101583.06;;;11.87;100.00
69772;BME280;57046;45.988;18.664;2022-10-30T00:20:54;101536.66;;;11.61;100.00
69772;BME280;57046;45.988;18.664;2022-10-30T00:23:19;101585.16;;;11.90;100.00
69772;BME280;57046;45.988;18.664;2022-10-30T00:25:44;101547.88;;;11.68;100.00
69772;BME280;57046;45.988;18.664;2022-10-30T00:28:10;101563.69;;;11.80;100.00
69772;BME280;57046;45.988;18.664;2022-10-30T00:30:35;101555.66;;;11.88;100.00
69772;BME280;57046;45.988;18.664;2022-10-30T00:33:01;101516.19;;;11.68;100.00
69772;BME280;57046;45.988;18.664;2022-10-30T00:35:26;101537.22;;;11.77;100.00
69772;BME280;57046;45.988;18.664;2022-10-30T00:37:51;101546.50;;;11.84;100.00
69772;BME280;57046;45.988;18.664;2022-10-30T00:40:17;101543.81;;;11.84;100.00
69772;BME280;57046;45.988;18.664;2022-10-30T00:42:43;101539.59;;;11.78;100.00
69772;BME280;57046;45.988;18.664;2022-10-30T00:45:11;101508.56;;;11.57;100.00
69772;BME280;57046;45.988;18.664;2022-10-30T00:47:41;101519.91;;;11.59;100.00
69772;BME280;57046;45.988;18.664;2022-10-30T00:50:15;101541.28;;;11.74;100.00
69772;BME280;57046;45.988;18.664;2022-10-30T00:52:48;101544.00;;;11.74;100.00
69772;BME280;57046;45.988;18.664;2022-10-30T00:56:03;101529.34;;;11.61;100.00
69772;BME280;57046;45.988;18.664;2022-10-30T00:58:13;101523.13;;;11.61;100.00
69772;BME280;57046;45.988;18.664;2022-10-30T01:00:43;101533.66;;;11.62;100.00
69772;BME280;57046;45.988;18.664;2022-10-30T01:03:10;101544.91;;;11.69;100.00
69772;BME280;57046;45.988;18.664;2022-10-30T01:05:36;101515.91;;;11.56;100.00
69772;BME280;57046;45.988;18.664;2022-10-30T01:08:02;101513.09;;;11.61;100.00
69772;BME280;57046;45.988;18.664;2022-10-30T01:10:27;101524.28;;;11.73;100.00
69772;BME280;57046;45.988;18.664;2022-10-30T01:12:53;101499.97;;;11.55;100.00
69772;BME280;57046;45.988;18.664;2022-10-30T01:15:25;101533.56;;;11.81;100.00
69772;BME280;57046;45.988;18.664;2022-10-30T01:18:19;101501.97;;;11.63;100.00
69772;BME280;57046;45.988;18.664;2022-10-30T01:34:21;101513.63;;;11.77;100.00
69772;BME280;57046;45.988;18.664;2022-10-30T01:37:00;101507.28;;;11.68;100.00
69772;BME280;57046;45.988;18.664;2022-10-30T01:39:31;101522.25;;;11.79;100.00
69772;BME280;57046;45.988;18.664;2022-10-30T01:41:57;101522.75;;;11.81;100.00
69772;BME280;57046;45.988;18.664;2022-10-30T01:44:30;101506.00;;;11.79;100.00
69772;BME280;57046;45.988;18.664;2022-10-30T01:47:21;101471.19;;;11.59;100.00
69772;BME280;57046;45.988;18.664;2022-10-30T01:52:56;101507.72;;;11.75;100.00
69772;BME280;57046;45.988;18.664;2022-10-30T01:55:35;101493.38;;;11.74;100.00
69772;BME280;57046;45.988;18.664;2022-10-30T02:00:31;101477.69;;;11.58;100.00
69772;BME280;57046;45.988;18.664;2022-10-30T02:02:57;101497.69;;;11.76;100.00
69772;BME280;57046;45.988;18.664;2022-10-30T02:05:38;101497.19;;;11.73;100.00
69772;BME280;57046;45.988;18.664;2022-10-30T02:08:05;101473.97;;;11.67;100.00
69772;BME280;57046;45.988;18.664;2022-10-30T02:10:33;101490.84;;;11.78;100.00
69772;BME280;57046;45.988;18.664;2022-10-30T02:13:00;101486.53;;;11.77;100.00
69772;BME280;57046;45.988;18.664;2022-10-30T02:15:25;101477.19;;;11.69;100.00
69772;BME280;57046;45.988;18.664;2022-10-30T02:17:51;101485.84;;;11.71;100.00
69772;BME280;57046;45.988;18.664;2022-10-30T02:20:21;101454.63;;;11.60;100.00
69772;BME280;57046;45.988;18.664;2022-10-30T02:22:47;101479.53;;;11.76;100.00
69772;BME280;57046;45.988;18.664;2022-10-30T02:25:13;101484.34;;;11.79;100.00
69772;BME280;57046;45.988;18.664;2022-10-30T02:27:38;101478.72;;;11.76;100.00
69772;BME280;57046;45.988;18.664;2022-10-30T02:30:04;101474.31;;;11.80;100.00
69772;BME280;57046;45.988;18.664;2022-10-30T02:32:30;101475.31;;;11.70;100.00
69772;BME280;57046;45.988;18.664;2022-10-30T02:34:55;101475.22;;;11.75;100.00
69772;BME280;57046;45.988;18.664;2022-10-30T02:37:20;101475.22;;;11.75;100.00
69772;BME280;57046;45.988;18.664;2022-10-30T02:39:46;101451.91;;;11.60;100.00
69772;BME280;57046;45.988;18.664;2022-10-30T02:42:11;101420.06;;;11.44;100.00
69772;BME280;57046;45.988;18.664;2022-10-30T02:44:36;101440.81;;;11.62;100.00
69772;BME280;57046;45.988;18.664;2022-10-30T02:47:02;101470.28;;;11.77;100.00
69772;BME280;57046;45.988;18.664;2022-10-30T02:49:27;101468.50;;;11.72;100.00
69772;BME280;57046;45.988;18.664;2022-10-30T02:51:53;101450.81;;;11.61;100.00
69772;BME280;57046;45.988;18.664;2022-10-30T02:54:18;101458.25;;;11.69;100.00
69772;BME280;57046;45.988;18.664;2022-10-30T02:56:43;101447.09;;;11.57;100.00
69772;BME280;57046;45.988;18.664;2022-10-30T02:59:09;101441.22;;;11.55;100.00
69772;BME280;57046;45.988;18.664;2022-10-30T03:01:34;101473.16;;;11.67;100.00
69772;BME280;57046;45.988;18.664;2022-10-30T03:03:59;101406.03;;;11.28;100.00
69772;BME280;57046;45.988;18.664;2022-10-30T03:06:25;101471.69;;;11.61;100.00
69772;BME280;57046;45.988;18.664;2022-10-30T03:08:50;101436.41;;;11.52;100.00
69772;BME280;57046;45.988;18.664;2022-10-30T03:11:17;101459.16;;;11.65;100.00
69772;BME280;57046;45.988;18.664;2022-10-30T03:13:43;101455.44;;;11.61;100.00
69772;BME280;57046;45.988;18.664;2022-10-30T03:16:20;101441.50;;;11.54;100.00
69772;BME280;57046;45.988;18.664;2022-10-30T03:18:46;101450.81;;;11.61;100.00
69772;BME280;57046;45.988;18.664;2022-10-30T03:21:15;101442.91;;;11.51;100.00
69772;BME280;57046;45.988;18.664;2022-10-30T03:23:40;101447.44;;;11.42;100.00
69772;BME280;57046;45.988;18.664;2022-10-30T03:26:06;101464.34;;;11.48;100.00
69772;BME280;57046;45.988;18.664;2022-10-30T03:28:32;101458.06;;;11.39;100.00
69772;BME280;57046;45.988;18.664;2022-10-30T03:31:06;101482.91;;;11.41;100.00
69772;BME280;57046;45.988;18.664;2022-10-30T03:33:32;101473.78;;;11.37;100.00
69772;BME280;57046;45.988;18.664;2022-10-30T03:35:58;101464.47;;;11.43;100.00
69772;BME280;57046;45.988;18.664;2022-10-30T03:38:24;101442.63;;;11.26;100.00
69772;BME280;57046;45.988;18.664;2022-10-30T03:40:50;101448.63;;;11.36;100.00
69772;BME280;57046;45.988;18.664;2022-10-30T03:43:16;101471.06;;;11.37;100.00
69772;BME280;57046;45.988;18.664;2022-10-30T03:45:49;101480.59;;;11.48;100.00
69772;BME280;57046;45.988;18.664;2022-10-30T03:48:16;101489.25;;;11.50;100.00
69772;BME280;57046;45.988;18.664;2022-10-30T03:50:41;101461.38;;;11.36;100.00
69772;BME280;57046;45.988;18.664;2022-10-30T03:53:07;101433.97;;;11.37;100.00
69772;BME280;57046;45.988;18.664;2022-10-30T03:55:32;101460.75;;;11.52;100.00
69772;BME280;57046;45.988;18.664;2022-10-30T03:57:57;101448.03;;;11.39;100.00
69772;BME280;57046;45.988;18.664;2022-10-30T04:00:23;101425.16;;;11.18;100.00
69772;BME280;57046;45.988;18.664;2022-10-30T04:02:50;101448.94;;;11.35;100.00
69772;BME280;57046;45.988;18.664;2022-10-30T04:05:18;101461.25;;;11.41;100.00
69772;BME280;57046;45.988;18.664;2022-10-30T04:07:43;101442.31;;;11.27;100.00
69772;BME280;57046;45.988;18.664;2022-10-30T04:10:10;101451.22;;;11.41;100.00
69772;BME280;57046;45.988;18.664;2022-10-30T04:12:35;101417.06;;;11.18;100.00
69772;BME280;57046;45.988;18.664;2022-10-30T04:15:01;101410.84;;;11.17;100.00
69772;BME280;57046;45.988;18.664;2022-10-30T04:17:26;101430.59;;;11.32;100.00
69772;BME280;57046;45.988;18.664;2022-10-30T04:19:52;101401.22;;;11.11;100.00
69772;BME280;57046;45.988;18.664;2022-10-30T04:22:17;101465.06;;;11.40;100.00
69772;BME280;57046;45.988;18.664;2022-10-30T04:24:43;101428.56;;;11.23;100.00
69772;BME280;57046;45.988;18.664;2022-10-30T04:27:08;101448.94;;;11.35;100.00
69772;BME280;57046;45.988;18.664;2022-10-30T04:29:33;101398.50;;;10.98;100.00
69772;BME280;57046;45.988;18.664;2022-10-30T04:31:58;101437.00;;;11.36;100.00
69772;BME280;57046;45.988;18.664;2022-10-30T04:34:28;101412.25;;;11.29;100.00
69772;BME280;57046;45.988;18.664;2022-10-30T04:36:53;101384.28;;;11.06;100.00
69772;BME280;57046;45.988;18.664;2022-10-30T04:39:18;101411.53;;;11.23;100.00
69772;BME280;57046;45.988;18.664;2022-10-30T04:41:44;101437.97;;;11.40;100.00
69772;BME280;57046;45.988;18.664;2022-10-30T04:44:09;101431.00;;;11.25;100.00
69772;BME280;57046;45.988;18.664;2022-10-30T04:46:34;101447.84;;;11.36;100.00
69772;BME280;57046;45.988;18.664;2022-10-30T04:49:00;101386.88;;;10.97;100.00
69772;BME280;57046;45.988;18.664;2022-10-30T04:51:28;101425.78;;;11.29;100.00
69772;BME280;57046;45.988;18.664;2022-10-30T04:53:54;101417.88;;;11.32;100.00
69772;BME280;57046;45.988;18.664;2022-10-30T04:56:19;101417.34;;;11.30;100.00
69772;BME280;57046;45.988;18.664;2022-10-30T04:58:44;101394.19;;;11.10;100.00
69772;BME280;57046;45.988;18.664;2022-10-30T05:01:10;101411.53;;;11.23;100.00
69772;BME280;57046;45.988;18.664;2022-10-30T05:03:35;101401.63;;;11.18;100.00
69772;BME280;57046;45.988;18.664;2022-10-30T05:08:28;101406.03;;;11.14;100.00
69772;BME280;57046;45.988;18.664;2022-10-30T05:10:54;101428.69;;;11.32;100.00
69772;BME280;57046;45.988;18.664;2022-10-30T05:13:20;101429.28;;;11.29;100.00
69772;BME280;57046;45.988;18.664;2022-10-30T05:15:45;101433.56;;;11.30;100.00
69772;BME280;57046;45.988;18.664;2022-10-30T05:18:10;101426.97;;;11.09;100.00
69772;BME280;57046;45.988;18.664;2022-10-30T05:20:36;101440.50;;;11.22;100.00
69772;BME280;57046;45.988;18.664;2022-10-30T05:23:01;101453.94;;;11.28;100.00
69772;BME280;57046;45.988;18.664;2022-10-30T05:25:27;101446.41;;;11.24;100.00
69772;BME280;57046;45.988;18.664;2022-10-30T05:28:03;101438.50;;;11.28;100.00
69772;BME280;57046;45.988;18.664;2022-10-30T05:30:30;101429.50;;;11.19;100.00
69772;BME280;57046;45.988;18.664;2022-10-30T05:32:57;101449.63;;;11.27;100.00
69772;BME280;57046;45.988;18.664;2022-10-30T05:35:22;101432.88;;;11.11;100.00
69772;BME280;57046;45.988;18.664;2022-10-30T05:37:48;101446.63;;;11.28;100.00
69772;BME280;57046;45.988;18.664;2022-10-30T05:40:13;101459.25;;;11.33;100.00
69772;BME280;57046;45.988;18.664;2022-10-30T05:42:46;101434.69;;;11.15;100.00
69772;BME280;57046;45.988;18.664;2022-10-30T05:45:12;101455.22;;;11.30;100.00
69772;BME280;57046;45.988;18.664;2022-10-30T05:47:38;101444.59;;;11.34;100.00
69772;BME280;57046;45.988;18.664;2022-10-30T05:50:04;101445.72;;;11.33;100.00
69772;BME280;57046;45.988;18.664;2022-10-30T05:52:32;101450.75;;;11.39;100.00
69772;BME280;57046;45.988;18.664;2022-10-30T05:54:58;101440.31;;;11.33;100.00
69772;BME280;57046;45.988;18.664;2022-10-30T05:57:26;101456.25;;;11.34;100.00
69772;BME280;57046;45.988;18.664;2022-10-30T05:59:51;101416.94;;;11.09;100.00
69772;BME280;57046;45.988;18.664;2022-10-30T06:02:17;101477.59;;;11.36;100.00
69772;BME280;57046;45.988;18.664;2022-10-30T06:04:42;101465.66;;;11.37;100.00
69772;BME280;57046;45.988;18.664;2022-10-30T06:07:09;101454.81;;;11.37;100.00
69772;BME280;57046;45.988;18.664;2022-10-30T06:09:34;101420.25;;;11.06;100.00
69772;BME280;57046;45.988;18.664;2022-10-30T06:12:00;101456.84;;;11.31;100.00
69772;BME280;57046;45.988;18.664;2022-10-30T06:14:25;101449.72;;;11.21;100.00
69772;BME280;57046;45.988;18.664;2022-10-30T06:16:51;101459.63;;;11.26;100.00
69772;BME280;57046;45.988;18.664;2022-10-30T06:19:17;101466.47;;;11.37;100.00
69772;BME280;57046;45.988;18.664;2022-10-30T06:21:43;101465.06;;;11.40;100.00
69772;BME280;57046;45.988;18.664;2022-10-30T06:24:08;101455.22;;;11.30;100.00
69772;BME280;57046;45.988;18.664;2022-10-30T06:26:34;101347.38;;;10.55;100.00
69772;BME280;57046;45.988;18.664;2022-10-30T06:28:59;101476.19;;;11.38;100.00
69772;BME280;57046;45.988;18.664;2022-10-30T06:31:25;101463.06;;;11.32;100.00
69772;BME280;57046;45.988;18.664;2022-10-30T06:33:51;101465.56;;;11.28;100.00
69772;BME280;57046;45.988;18.664;2022-10-30T06:36:18;101490.13;;;11.45;100.00
69772;BME280;57046;45.988;18.664;2022-10-30T06:38:45;101485.00;;;11.44;100.00
69772;BME280;57046;45.988;18.664;2022-10-30T06:41:12;101460.16;;;11.28;100.00
69772;BME280;57046;45.988;18.664;2022-10-30T06:43:38;101451.91;;;11.19;100.00
69772;BME280;57046;45.988;18.664;2022-10-30T06:46:04;101463.88;;;11.32;100.00
69772;BME280;57046;45.988;18.664;2022-10-30T06:48:30;101436.78;;;11.18;100.00
69772;BME280;57046;45.988;18.664;2022-10-30T06:50:56;101453.91;;;11.14;100.00
69772;BME280;57046;45.988;18.664;2022-10-30T06:53:22;101493.66;;;11.46;100.00
69772;BME280;57046;45.988;18.664;2022-10-30T06:56:00;101460.75;;;11.25;100.00
69772;BME280;57046;45.988;18.664;2022-10-30T06:58:26;101481.00;;;11.41;100.00
69772;BME280;57046;45.988;18.664;2022-10-30T07:00:52;101493.66;;;11.46;100.00
69772;BME280;57046;45.988;18.664;2022-10-30T07:03:18;101497.44;;;11.45;100.00
69772;BME280;57046;45.988;18.664;2022-10-30T07:05:43;101482.88;;;11.27;100.00
69772;BME280;57046;45.988;18.664;2022-10-30T07:08:08;101499.88;;;11.46;100.00
69772;BME280;57046;45.988;18.664;2022-10-30T07:10:34;101510.19;;;11.58;100.00
69772;BME280;57046;45.988;18.664;2022-10-30T07:12:59;101504.47;;;11.59;100.00
69772;BME280;57046;45.988;18.664;2022-10-30T07:15:25;101503.75;;;11.54;100.00
69772;BME280;57046;45.988;18.664;2022-10-30T07:18:01;101513.78;;;11.53;100.00
69772;BME280;57046;45.988;18.664;2022-10-30T07:20:28;101507.19;;;11.46;100.00
69772;BME280;57046;45.988;18.664;2022-10-30T07:22:54;101512.28;;;11.47;100.00
69772;BME280;57046;45.988;18.664;2022-10-30T07:25:19;101511.06;;;11.40;100.00
69772;BME280;57046;45.988;18.664;2022-10-30T07:27:47;101518.59;;;11.43;100.00
69772;BME280;57046;45.988;18.664;2022-10-30T07:30:14;101517.81;;;11.56;100.00
69772;BME280;57046;45.988;18.664;2022-10-30T07:32:40;101519.91;;;11.59;100.00
69772;BME280;57046;45.988;18.664;2022-10-30T07:35:08;101509.69;;;11.56;100.00
69772;BME280;57046;45.988;18.664;2022-10-30T07:37:34;101522.03;;;11.62;100.00
69772;BME280;57046;45.988;18.664;2022-10-30T07:40:00;101520.31;;;11.66;100.00
69772;BME280;57046;45.988;18.664;2022-10-30T07:42:25;101490.34;;;11.49;100.00
69772;BME280;57046;45.988;18.664;2022-10-30T07:44:51;101536.00;;;11.83;100.00
69772;BME280;57046;45.988;18.664;2022-10-30T07:47:16;101520.16;;;11.76;100.00
69772;BME280;57046;45.988;18.664;2022-10-30T07:49:42;101532.47;;;11.82;100.00
69772;BME280;57046;45.988;18.664;2022-10-30T07:52:08;101533.50;;;11.86;100.00
69772;BME280;57046;45.988;18.664;2022-10-30T07:54:33;101490.34;;;11.49;100.00
69772;BME280;57046;45.988;18.664;2022-10-30T07:57:02;101505.16;;;11.65;100.00
69772;BME280;57046;45.988;18.664;2022-10-30T07:59:29;101528.34;;;11.85;100.00
69772;BME280;57046;45.988;18.664;2022-10-30T08:01:54;101531.28;;;11.88;100.00
69772;BME280;57046;45.988;18.664;2022-10-30T08:04:20;101516.91;;;11.88;100.00
69772;BME280;57046;45.988;18.664;2022-10-30T08:06:46;101537.00;;;12.00;100.00
69772;BME280;57046;45.988;18.664;2022-10-30T08:09:11;101527.53;;;11.98;100.00
69772;BME280;57046;45.988;18.664;2022-10-30T08:11:36;101492.56;;;11.74;100.00
69772;BME280;57046;45.988;18.664;2022-10-30T08:14:02;101506.59;;;11.90;100.00
69772;BME280;57046;45.988;18.664;2022-10-30T08:16:29;101473.59;;;11.74;100.00
69772;BME280;57046;45.988;18.664;2022-10-30T08:18:56;101531.47;;;12.05;100.00
69772;BME280;57046;45.988;18.664;2022-10-30T08:21:21;101518.66;;;11.97;100.00
69772;BME280;57046;45.988;18.664;2022-10-30T08:23:46;101519.63;;;12.01;100.00
69772;BME280;57046;45.988;18.664;2022-10-30T08:26:12;101523.94;;;12.02;100.00
69772;BME280;57046;45.988;18.664;2022-10-30T08:28:38;101514.41;;;12.05;100.00
69772;BME280;57046;45.988;18.664;2022-10-30T08:31:04;101500.56;;;12.06;100.00
69772;BME280;57046;45.988;18.664;2022-10-30T08:33:29;101495.94;;;12.07;100.00
69772;BME280;57046;45.988;18.664;2022-10-30T08:35:57;101516.81;;;12.06;100.00
69772;BME280;57046;45.988;18.664;2022-10-30T08:38:23;101504.28;;;12.10;100.00
69772;BME280;57046;45.988;18.664;2022-10-30T08:40:48;101508.34;;;12.21;100.00
69772;BME280;57046;45.988;18.664;2022-10-30T08:43:14;101512.56;;;12.28;100.00
69772;BME280;57046;45.988;18.664;2022-10-30T08:45:40;101490.59;;;12.15;100.00
69772;BME280;57046;45.988;18.664;2022-10-30T08:48:07;101499.63;;;12.24;100.00
69772;BME280;57046;45.988;18.664;2022-10-30T08:50:34;101486.38;;;12.23;100.00
69772;BME280;57046;45.988;18.664;2022-10-30T08:53:10;101531.00;;;12.39;100.00
69772;BME280;57046;45.988;18.664;2022-10-30T08:55:37;101520.66;;;12.41;100.00
69772;BME280;57046;45.988;18.664;2022-10-30T08:58:02;101508.50;;;12.39;100.00
69772;BME280;57046;45.988;18.664;2022-10-30T09:00:29;101511.22;;;12.39;100.00
69772;BME280;57046;45.988;18.664;2022-10-30T09:02:55;101515.44;;;12.45;100.00
69772;BME280;57046;45.988;18.664;2022-10-30T09:05:21;101512.72;;;12.45;100.00
69772;BME280;57046;45.988;18.664;2022-10-30T09:07:47;101516.59;;;12.52;100.00
69772;BME280;57046;45.988;18.664;2022-10-30T09:10:13;101516.41;;;12.49;100.00
69772;BME280;57046;45.988;18.664;2022-10-30T09:12:38;101511.09;;;12.44;100.00
69772;BME280;57046;45.988;18.664;2022-10-30T09:15:04;101515.00;;;12.51;100.00
69772;BME280;57046;45.988;18.664;2022-10-30T09:17:30;101516.41;;;12.49;100.00
69772;BME280;57046;45.988;18.664;2022-10-30T09:19:55;101517.44;;;12.39;100.00
69772;BME280;57046;45.988;18.664;2022-10-30T09:22:21;101506.91;;;12.38;100.00
69772;BME280;57046;45.988;18.664;2022-10-30T09:24:46;101473.69;;;12.32;100.00
69772;BME280;57046;45.988;18.664;2022-10-30T09:27:12;101508.66;;;12.56;100.00
69772;BME280;57046;45.988;18.664;2022-10-30T09:29:37;101495.66;;;12.44;100.00
69772;BME280;57046;45.988;18.664;2022-10-30T09:32:03;101501.06;;;12.44;100.00
69772;BME280;57046;45.988;18.664;2022-10-30T09:34:28;101488.63;;;12.43;100.00
69772;BME280;57046;45.988;18.664;2022-10-30T09:36:53;101500.69;;;12.59;100.00
69772;BME280;57046;45.988;18.664;2022-10-30T09:39:19;101506.31;;;12.63;100.00
69772;BME280;57046;45.988;18.664;2022-10-30T09:50:49;101531.38;;;12.82;100.00
69772;BME280;57046;45.988;18.664;2022-10-30T09:53:38;101528.66;;;12.82;100.00
69772;BME280;57046;45.988;18.664;2022-10-30T09:56:21;101508.78;;;12.73;100.00
69772;BME280;57046;45.988;18.664;2022-10-30T10:01:41;101500.63;;;12.73;100.00
69772;BME280;57046;45.988;18.664;2022-10-30T10:04:26;101509.84;;;12.86;100.00
69772;BME280;57046;45.988;18.664;2022-10-30T10:07:00;101504.22;;;12.82;100.00
69772;BME280;57046;45.988;18.664;2022-10-30T10:09:27;101482.28;;;12.70;100.00
69772;BME280;57046;45.988;18.664;2022-10-30T10:11:57;101495.59;;;12.80;100.00
69772;BME280;57046;45.988;18.664;2022-10-30T10:14:28;101509.59;;;12.96;100.00
69772;BME280;57046;45.988;18.664;2022-10-30T10:16:59;101499.66;;;12.91;100.00
69772;BME280;57046;45.988;18.664;2022-10-30T10:19:48;101510.25;;;13.01;100.00
69772;BME280;57046;45.988;18.664;2022-10-30T10:24:55;101516.56;;;13.10;100.00
69772;BME280;57046;45.988;18.664;2022-10-30T10:30:01;101511.88;;;13.02;100.00
69772;BME280;57046;45.988;18.664;2022-10-30T10:35:36;101525.41;;;13.16;100.00
69772;BME280;57046;45.988;18.664;2022-10-30T10:49:24;101487.88;;;12.96;100.00
69772;BME280;57046;45.988;18.664;2022-10-30T10:52:11;101479.56;;;12.92;100.00
69772;BME280;57046;45.988;18.664;2022-10-30T10:54:42;101476.59;;;13.02;100.00
69772;BME280;57046;45.988;18.664;2022-10-30T10:57:16;101507.31;;;13.11;100.00
69772;BME280;57046;45.988;18.664;2022-10-30T10:59:50;101465.38;;;12.73;100.00
69772;BME280;57046;45.988;18.664;2022-10-30T11:02:48;101498.16;;;13.07;100.00
69772;BME280;57046;45.988;18.664;2022-10-30T11:07:50;101496.38;;;13.25;100.00
69772;BME280;57046;45.988;18.664;2022-10-30T11:10:18;101472.78;;;13.34;100.00
69772;BME280;57046;45.988;18.664;2022-10-30T11:12:44;101499.19;;;13.51;100.00
69772;BME280;57046;45.988;18.664;2022-10-30T11:15:30;101489.75;;;13.40;100.00
69772;BME280;57046;45.988;18.664;2022-10-30T11:17:59;101492.63;;;13.43;100.00
69772;BME280;57046;45.988;18.664;2022-10-30T11:23:44;101463.13;;;13.19;100.00
69772;BME280;57046;45.988;18.664;2022-10-30T11:28:47;101469.41;;;13.37;100.00
69772;BME280;57046;45.988;18.664;2022-10-30T11:33:46;101472.66;;;13.39;100.00
69772;BME280;57046;45.988;18.664;2022-10-30T11:36:14;101447.44;;;14.55;100.00
69772;BME280;57046;45.988;18.664;2022-10-30T11:38:40;101459.53;;;14.06;100.00
69772;BME280;57046;45.988;18.664;2022-10-30T11:41:05;101424.56;;;13.40;100.00
69772;BME280;57046;45.988;18.664;2022-10-30T11:43:31;101460.91;;;13.69;100.00
69772;BME280;57046;45.988;18.664;2022-10-30T11:45:57;101462.75;;;13.91;100.00
69772;BME280;57046;45.988;18.664;2022-10-30T11:48:30;101443.84;;;13.86;100.00
69772;BME280;57046;45.988;18.664;2022-10-30T11:51:00;101451.06;;;13.99;100.00
69772;BME280;57046;45.988;18.664;2022-10-30T11:53:33;101451.25;;;14.11;100.00
69772;BME280;57046;45.988;18.664;2022-10-30T11:56:00;101443.25;;;14.23;100.00
69772;BME280;57046;45.988;18.664;2022-10-30T11:58:36;101432.53;;;14.27;100.00
69772;BME280;57046;45.988;18.664;2022-10-30T12:01:07;101447.91;;;14.40;100.00
69772;BME280;57046;45.988;18.664;2022-10-30T12:03:38;101443.13;;;14.46;100.00
69772;BME280;57046;45.988;18.664;2022-10-30T12:06:24;101436.03;;;14.70;100.00
69772;BME280;57046;45.988;18.664;2022-10-30T12:09:07;101437.31;;;14.73;100.00
69772;BME280;57046;45.988;18.664;2022-10-30T12:11:35;101440.31;;;14.80;100.00
69772;BME280;57046;45.988;18.664;2022-10-30T12:14:01;101415.66;;;14.85;100.00
69772;BME280;57046;45.988;18.664;2022-10-30T12:16:27;101431.84;;;14.82;100.00
69772;BME280;57046;45.988;18.664;2022-10-30T12:19:04;101399.44;;;14.51;100.00
69772;BME280;57046;45.988;18.664;2022-10-30T12:21:36;101401.47;;;14.71;100.00
69772;BME280;57046;45.988;18.664;2022-10-30T12:24:04;101418.69;;;14.84;100.00
69772;BME280;57046;45.988;18.664;2022-10-30T12:26:32;101419.84;;;14.83;100.00
69772;BME280;57046;45.988;18.664;2022-10-30T12:29:02;101414.75;;;14.64;100.00
69772;BME280;57046;45.988;18.664;2022-10-30T12:32:03;101422.78;;;15.45;100.00
69772;BME280;57046;45.988;18.664;2022-10-30T12:42:17;101399.88;;;15.08;100.00
69772;BME280;57046;45.988;18.664;2022-10-30T12:45:07;101400.47;;;14.84;100.00
69772;BME280;57046;45.988;18.664;2022-10-30T12:47:44;101418.34;;;15.02;100.00
69772;BME280;57046;45.988;18.664;2022-10-30T12:50:21;101401.84;;;14.99;100.00
69772;BME280;57046;45.988;18.664;2022-10-30T12:53:53;101413.63;;;15.20;100.00
69772;BME280;57046;45.988;18.664;2022-10-30T12:55:48;101393.69;;;14.99;100.00
69772;BME280;57046;45.988;18.664;2022-10-30T12:58:56;101418.63;;;15.09;100.00
69772;BME280;57046;45.988;18.664;2022-10-30T13:01:43;101402.16;;;14.97;100.00
69772;BME280;57046;45.988;18.664;2022-10-30T13:04:20;101416.28;;;14.99;100.00
69772;BME280;57046;45.988;18.664;2022-10-30T13:09:36;101419.97;;;14.95;100.00
69772;BME280;57046;45.988;18.664;2022-10-30T13:12:08;101411.34;;;14.84;100.00
69772;BME280;57046;45.988;18.664;2022-10-30T13:14:45;101385.75;;;14.76;100.00
69772;BME280;57046;45.988;18.664;2022-10-30T13:17:14;101404.78;;;14.76;100.00
69772;BME280;57046;45.988;18.664;2022-10-30T13:19:40;101415.06;;;14.71;100.00
69772;BME280;57046;45.988;18.664;2022-10-30T13:25:26;101392.03;;;14.60;100.00
69772;BME280;57046;45.988;18.664;2022-10-30T13:30:33;101374.47;;;14.49;100.00
69772;BME280;57046;45.988;18.664;2022-10-30T13:33:30;101387.75;;;14.50;100.00
69772;BME280;57046;45.988;18.664;2022-10-30T13:44:57;101407.75;;;14.46;100.00
69772;BME280;57046;45.988;18.664;2022-10-30T13:47:43;101409.03;;;14.48;100.00
69772;BME280;57046;45.988;18.664;2022-10-30T13:52:41;101400.06;;;14.31;100.00
69772;BME280;57046;45.988;18.664;2022-10-30T13:55:30;101395.91;;;14.24;100.00
69772;BME280;57046;45.988;18.664;2022-10-30T14:11:11;101362.47;;;13.98;100.00
69772;BME280;57046;45.988;18.664;2022-10-30T14:16:42;101364.41;;;14.06;100.00
69772;BME280;57046;45.988;18.664;2022-10-30T14:19:12;101393.34;;;14.19;100.00
69772;BME280;57046;45.988;18.664;2022-10-30T14:34:43;101371.75;;;13.89;100.00
69772;BME280;57046;45.988;18.664;2022-10-30T14:37:10;101366.66;;;13.87;100.00
69772;BME280;57046;45.988;18.664;2022-10-30T14:39:44;101346.81;;;13.69;100.00